Time;durP1;ratioP1;P1;durP2;ratioP2;P2;SDS_P1;SDS_P2;PMS_P1;PMS_P2;Temp;Humidity;BMP_temperature;BMP_pressure;BME280_temperature;BME280_humidity;BME280_pressure;Samples;Min_cycle;Max_cycle;Signal;HPM_P1;HPM_P2
2022/08/30 00:01:31;;;;;;;7.95;4.13;;;22.70;99.90;;;;;;5058509;28;20029;-72
2022/08/30 00:03:59;;;;;;;5.25;3.88;;;22.70;99.90;;;;;;5056277;28;20071;-72
2022/08/30 00:06:27;;;;;;;6.80;4.40;;;22.50;99.90;;;;;;5060279;28;20107;-72
2022/08/30 00:08:53;;;;;;;9.13;4.65;;;22.50;99.90;;;;;;5048168;28;20059;-72
2022/08/30 00:11:23;;;;;;;8.00;4.68;;;22.60;99.90;;;;;;5068671;28;20025;-72
2022/08/30 00:13:51;;;;;;;5.47;3.97;;;22.50;99.90;;;;;;5066608;28;20471;-72
2022/08/30 00:16:19;;;;;;;8.43;4.40;;;22.50;99.90;;;;;;5067537;28;20056;-72
2022/08/30 00:18:45;;;;;;;7.63;4.50;;;22.40;99.90;;;;;;5059074;28;20044;-72
2022/08/30 00:21:11;;;;;;;8.10;4.47;;;22.40;99.90;;;;;;5063936;28;20527;-73
2022/08/30 00:23:37;;;;;;;6.63;3.97;;;22.30;99.90;;;;;;5064873;28;20390;-73
2022/08/30 00:26:04;;;;;;;6.10;4.20;;;22.20;99.90;;;;;;5055499;28;20035;-73
2022/08/30 00:28:32;;;;;;;6.22;3.53;;;22.20;99.90;;;;;;5056984;28;20033;-72
2022/08/30 00:31:00;;;;;;;8.43;4.20;;;22.10;99.90;;;;;;5068064;28;20052;-72
2022/08/30 00:33:25;;;;;;;6.55;4.70;;;22.00;99.90;;;;;;5061386;28;20128;-72
2022/08/30 00:35:51;;;;;;;6.60;4.50;;;22.10;99.90;;;;;;5058625;28;20484;-72
2022/08/30 00:38:17;;;;;;;9.23;4.80;;;22.10;99.90;;;;;;5060048;28;20111;-72
2022/08/30 00:40:44;;;;;;;6.43;4.57;;;22.10;99.90;;;;;;5073503;28;20033;-72
2022/08/30 00:43:17;;;;;;;8.30;4.72;;;22.30;99.90;;;;;;5063783;28;20053;-72
2022/08/30 00:45:43;;;;;;;5.85;4.35;;;22.30;99.90;;;;;;5071076;28;20078;-72
2022/08/30 00:48:09;;;;;;;6.65;4.20;;;22.20;99.90;;;;;;5071817;28;20025;-72
2022/08/30 00:50:42;;;;;;;8.48;4.80;;;22.20;99.90;;;;;;5072439;28;20398;-72
2022/08/30 00:53:13;;;;;;;8.32;4.20;;;22.20;99.90;;;;;;5058435;28;20036;-72
2022/08/30 00:55:42;;;;;;;7.18;4.95;;;22.20;99.90;;;;;;5071622;28;20498;-72
2022/08/30 00:58:11;;;;;;;6.45;4.43;;;22.20;99.90;;;;;;5065758;28;20083;-72
2022/08/30 01:00:37;;;;;;;6.80;4.75;;;22.20;99.90;;;;;;5073230;28;20036;-72
2022/08/30 01:03:03;;;;;;;6.15;4.30;;;22.20;99.90;;;;;;5059228;28;20029;-72
2022/08/30 01:05:29;;;;;;;6.95;4.45;;;22.10;99.90;;;;;;5073661;28;20044;-72
2022/08/30 01:07:54;;;;;;;7.15;4.70;;;22.10;99.90;;;;;;5071439;28;20141;-72
2022/08/30 01:10:20;;;;;;;8.13;4.38;;;22.10;99.90;;;;;;5064376;28;20493;-72
2022/08/30 01:12:46;;;;;;;6.40;4.25;;;22.20;99.90;;;;;;5054128;28;20422;-72
2022/08/30 01:15:13;;;;;;;7.90;4.35;;;22.30;99.90;;;;;;5059987;28;20398;-72
2022/08/30 01:17:40;;;;;;;7.03;4.18;;;22.20;99.90;;;;;;5068362;28;20079;-72
2022/08/30 01:20:32;;;;;;;7.18;5.15;;;22.20;99.90;;;;;;5046980;28;20371;-72
2022/08/30 01:23:01;;;;;;;7.43;5.20;;;22.20;99.90;;;;;;5073004;28;20035;-72
2022/08/30 01:25:29;;;;;;;8.45;5.40;;;22.30;99.90;;;;;;5068701;28;20033;-72
2022/08/30 01:28:00;;;;;;;8.07;4.95;;;22.30;99.90;;;;;;5059829;28;20107;-72
2022/08/30 01:30:27;;;;;;;8.07;5.10;;;22.20;99.90;;;;;;5054274;28;20108;-72
2022/08/30 01:32:58;;;;;;;6.55;4.45;;;22.20;99.90;;;;;;5067684;28;20366;-72
2022/08/30 01:35:24;;;;;;;7.25;4.32;;;22.20;99.90;;;;;;5070587;28;20029;-73
2022/08/30 01:37:50;;;;;;;6.30;4.40;;;22.20;99.90;;;;;;5067170;28;20032;-72
2022/08/30 01:40:17;;;;;;;7.57;4.22;;;22.20;99.90;;;;;;5072466;28;20036;-73
2022/08/30 01:42:43;;;;;;;7.50;4.45;;;22.20;99.90;;;;;;5066095;28;20489;-72
2022/08/30 01:45:10;;;;;;;7.10;4.63;;;22.20;99.90;;;;;;5073145;28;20044;-72
2022/08/30 01:47:36;;;;;;;10.23;4.43;;;22.20;99.90;;;;;;5067994;28;20032;-72
2022/08/30 01:50:03;;;;;;;10.00;4.20;;;22.20;99.90;;;;;;5071596;28;20029;-73
2022/08/30 01:52:29;;;;;;;8.23;4.88;;;22.20;99.90;;;;;;5071821;28;20030;-72
2022/08/30 01:54:55;;;;;;;5.72;4.10;;;22.30;99.90;;;;;;5068480;28;20145;-72
2022/08/30 01:57:22;;;;;;;8.75;4.93;;;22.30;99.90;;;;;;5064342;28;20098;-72
2022/08/30 01:59:49;;;;;;;6.50;4.28;;;22.20;99.90;;;;;;5052263;28;20045;-72
2022/08/30 02:02:21;;;;;;;8.13;4.80;;;22.20;99.90;;;;;;5054800;28;20020;-72
2022/08/30 02:04:48;;;;;;;6.75;4.95;;;22.10;99.90;;;;;;5052828;28;20475;-72
2022/08/30 02:07:14;;;;;;;8.55;5.15;;;22.10;99.90;;;;;;5064925;28;20021;-72
2022/08/30 02:09:41;;;;;;;8.88;6.53;;;22.10;99.90;;;;;;5052470;28;20078;-72
2022/08/30 02:12:07;;;;;;;8.95;6.07;;;22.00;99.90;;;;;;5052761;28;20120;-73
2022/08/30 02:14:35;;;;;;;9.27;5.68;;;22.00;99.90;;;;;;5063095;28;20016;-72
2022/08/30 02:17:02;;;;;;;8.82;6.22;;;22.00;99.90;;;;;;5063197;28;20075;-72
2022/08/30 02:19:28;;;;;;;12.25;6.22;;;22.00;99.90;;;;;;5069662;28;20091;-72
2022/08/30 02:21:54;;;;;;;9.25;5.75;;;22.00;99.90;;;;;;5068931;28;20037;-72
2022/08/30 02:24:20;;;;;;;7.90;6.32;;;22.00;99.90;;;;;;5053530;28;20509;-72
2022/08/30 02:26:45;;;;;;;8.07;6.10;;;22.00;99.90;;;;;;5059232;28;20509;-72
2022/08/30 02:29:11;;;;;;;9.30;6.78;;;21.80;99.90;;;;;;5065660;28;20032;-73
2022/08/30 02:31:37;;;;;;;9.45;6.63;;;21.60;99.90;;;;;;5063702;28;20039;-72
2022/08/30 02:34:03;;;;;;;10.77;7.72;;;21.50;99.90;;;;;;5053342;28;20052;-73
2022/08/30 02:36:29;;;;;;;12.68;7.07;;;21.50;99.90;;;;;;5057376;28;20111;-74
2022/08/30 02:38:55;;;;;;;13.25;7.32;;;21.30;99.90;;;;;;5064298;28;20123;-73
2022/08/30 02:41:22;;;;;;;17.25;8.43;;;21.20;99.90;;;;;;5063799;28;20491;-73
2022/08/30 02:43:48;;;;;;;15.55;7.97;;;20.80;99.90;;;;;;5065814;28;20029;-73
2022/08/30 02:46:14;;;;;;;12.85;8.23;;;20.60;99.90;;;;;;5058546;28;20116;-73
2022/08/30 02:48:40;;;;;;;13.85;9.25;;;20.30;99.90;;;;;;5056345;28;20530;-73
2022/08/30 02:51:09;;;;;;;11.73;8.60;;;20.40;99.90;;;;;;5056503;28;20111;-73
2022/08/30 02:53:36;;;;;;;12.85;8.90;;;20.40;99.90;;;;;;5059625;28;20049;-73
2022/08/30 02:56:02;;;;;;;14.52;8.63;;;20.30;99.90;;;;;;5063996;28;20024;-73
2022/08/30 02:58:28;;;;;;;16.52;9.15;;;20.40;99.90;;;;;;5066240;28;20080;-73
2022/08/30 03:00:53;;;;;;;11.20;8.13;;;20.40;99.90;;;;;;5067789;28;20125;-72
2022/08/30 03:03:19;;;;;;;15.55;8.15;;;20.40;99.90;;;;;;5059364;28;20399;-72
2022/08/30 03:05:45;;;;;;;10.27;6.88;;;20.40;99.90;;;;;;5055090;28;20083;-72
2022/08/30 03:08:11;;;;;;;11.85;7.80;;;20.40;99.90;;;;;;5064508;28;20028;-72
2022/08/30 03:10:37;;;;;;;12.50;7.38;;;20.30;99.90;;;;;;5057072;28;20131;-72
2022/08/30 03:13:04;;;;;;;13.02;7.43;;;20.30;99.90;;;;;;5060456;28;20032;-72
2022/08/30 03:15:29;;;;;;;13.80;7.80;;;20.40;99.90;;;;;;5065046;28;20033;-72
2022/08/30 03:17:55;;;;;;;11.57;8.00;;;20.40;99.90;;;;;;5058679;28;20040;-72
2022/08/30 03:20:22;;;;;;;18.38;7.70;;;20.50;99.90;;;;;;5057275;28;20040;-72
2022/08/30 03:22:48;;;;;;;8.35;5.65;;;20.20;99.90;;;;;;5052186;28;20136;-72
2022/08/30 03:25:14;;;;;;;9.10;6.13;;;20.00;99.90;;;;;;5051531;28;20514;-72
2022/08/30 03:27:40;;;;;;;8.63;6.10;;;19.90;99.90;;;;;;5059693;28;20029;-72
2022/08/30 03:30:07;;;;;;;8.70;7.03;;;19.90;99.90;;;;;;5066055;28;20028;-72
2022/08/30 03:32:33;;;;;;;10.23;6.88;;;19.90;99.90;;;;;;5062194;28;20600;-72
2022/08/30 03:34:59;;;;;;;9.55;7.28;;;19.80;99.90;;;;;;5056878;28;20041;-72
2022/08/30 03:37:26;;;;;;;11.63;7.63;;;19.90;99.90;;;;;;5053740;28;20048;-72
2022/08/30 03:39:53;;;;;;;9.50;6.88;;;19.80;99.90;;;;;;5056877;28;20414;-72
2022/08/30 03:42:18;;;;;;;7.75;5.95;;;19.80;99.90;;;;;;5057939;28;20425;-72
2022/08/30 03:44:44;;;;;;;8.60;5.68;;;19.80;99.90;;;;;;5066113;28;20032;-72
2022/08/30 03:47:10;;;;;;;9.88;6.10;;;19.80;99.90;;;;;;5057438;28;20398;-72
2022/08/30 03:49:36;;;;;;;8.75;5.57;;;19.80;99.90;;;;;;5063367;28;20105;-72
2022/08/30 03:52:02;;;;;;;8.32;5.47;;;19.90;99.90;;;;;;5067161;28;20025;-72
2022/08/30 03:54:28;;;;;;;10.05;5.45;;;19.90;99.90;;;;;;5065088;28;20465;-72
2022/08/30 03:56:53;;;;;;;9.13;5.57;;;20.00;99.90;;;;;;5061892;28;20080;-72
2022/08/30 03:59:19;;;;;;;7.78;5.15;;;19.80;99.90;;;;;;5053385;28;20067;-72
2022/08/30 04:01:46;;;;;;;7.38;5.35;;;19.80;99.90;;;;;;5066642;28;20045;-72
2022/08/30 04:04:13;;;;;;;6.45;4.68;;;19.90;99.90;;;;;;5066180;28;20040;-72
2022/08/30 04:06:38;;;;;;;6.65;4.70;;;19.90;99.90;;;;;;5062066;28;20024;-72
2022/08/30 04:09:05;;;;;;;7.57;4.88;;;19.80;99.90;;;;;;5060357;28;20620;-72
2022/08/30 04:11:31;;;;;;;6.38;4.80;;;19.70;99.90;;;;;;5060053;28;20577;-72
2022/08/30 04:13:56;;;;;;;6.70;5.28;;;19.70;99.90;;;;;;5055057;28;20063;-72
2022/08/30 04:16:23;;;;;;;9.98;7.20;;;19.80;99.90;;;;;;5052458;28;20052;-72
2022/08/30 04:18:49;;;;;;;11.52;7.20;;;19.80;99.90;;;;;;5063027;28;20032;-72
2022/08/30 04:21:16;;;;;;;11.23;7.88;;;19.60;99.90;;;;;;5063420;28;20024;-72
2022/08/30 04:23:42;;;;;;;10.13;7.93;;;19.40;99.90;;;;;;5061082;28;20570;-72
2022/08/30 04:26:08;;;;;;;10.55;7.57;;;19.50;99.90;;;;;;5057209;28;20078;-72
2022/08/30 04:28:34;;;;;;;9.40;7.00;;;19.70;99.90;;;;;;5063646;28;20025;-71
2022/08/30 04:31:10;;;;;;;9.40;7.30;;;19.70;99.90;;;;;;5060908;28;20029;-72
2022/08/30 04:33:36;;;;;;;9.70;7.25;;;19.60;99.90;;;;;;5058263;28;20036;-72
2022/08/30 04:36:04;;;;;;;9.55;7.10;;;19.60;99.90;;;;;;5055238;28;20032;-72
2022/08/30 04:38:30;;;;;;;9.27;6.90;;;19.60;99.90;;;;;;5059143;28;20506;-71
2022/08/30 04:40:56;;;;;;;10.05;7.47;;;19.60;99.90;;;;;;5065481;28;20036;-72
2022/08/30 04:43:24;;;;;;;10.80;6.88;;;19.60;99.90;;;;;;5063317;28;20083;-72
2022/08/30 04:45:51;;;;;;;10.52;6.35;;;19.70;99.90;;;;;;5053234;28;20353;-72
2022/08/30 04:48:17;;;;;;;7.25;4.88;;;19.60;99.90;;;;;;5050772;28;21060;-72
2022/08/30 04:50:43;;;;;;;6.60;4.57;;;19.70;99.90;;;;;;5051464;28;20032;-72
2022/08/30 04:53:09;;;;;;;7.80;5.57;;;19.70;99.90;;;;;;5056569;28;20032;-71
2022/08/30 04:55:34;;;;;;;8.10;5.82;;;19.90;99.90;;;;;;5061282;28;20028;-72
2022/08/30 04:58:00;;;;;;;8.02;5.22;;;19.90;99.90;;;;;;5052987;28;20476;-71
2022/08/30 05:00:26;;;;;;;11.55;5.68;;;19.80;99.90;;;;;;5053203;28;20043;-71
2022/08/30 05:02:52;;;;;;;10.20;5.50;;;19.70;99.90;;;;;;5065788;28;20024;-72
2022/08/30 05:08:02;;;;;;;;;;;19.40;99.90;;;;;;5053709;28;20087;-71
2022/08/30 05:10:28;;;;;;;10.80;6.65;;;19.30;99.90;;;;;;5061119;28;19912;-72
2022/08/30 05:12:54;;;;;;;9.48;6.35;;;19.30;99.90;;;;;;5051211;28;20504;-72
2022/08/30 05:15:21;;;;;;;8.98;5.80;;;19.40;99.90;;;;;;5047676;28;20048;-72
2022/08/30 05:17:47;;;;;;;7.40;5.32;;;19.50;99.90;;;;;;5054983;28;20023;-72
2022/08/30 05:20:13;;;;;;;9.02;4.88;;;19.60;99.90;;;;;;5053894;28;20072;-72
2022/08/30 05:22:48;;;;;;;7.80;5.03;;;19.60;99.90;;;;;;5058419;28;20152;-72
2022/08/30 05:25:19;;;;;;;7.65;4.80;;;19.70;99.90;;;;;;5054188;28;20036;-72
2022/08/30 05:27:45;;;;;;;6.18;4.28;;;19.60;99.90;;;;;;5050053;28;20078;-71
2022/08/30 05:30:12;;;;;;;9.20;4.72;;;19.60;99.90;;;;;;5065396;28;20012;-72
2022/08/30 05:32:38;;;;;;;5.93;4.13;;;19.60;99.90;;;;;;5053229;28;20044;-73
2022/08/30 05:35:09;;;;;;;5.97;3.60;;;19.70;99.90;;;;;;5052126;28;20128;-72
2022/08/30 05:37:35;;;;;;;5.22;3.13;;;19.60;99.90;;;;;;5046166;28;20588;-71
2022/08/30 05:40:02;;;;;;;4.93;3.17;;;19.60;99.90;;;;;;5060260;28;20417;-73
2022/08/30 05:42:28;;;;;;;5.03;3.42;;;19.50;99.90;;;;;;5061125;28;20029;-72
2022/08/30 05:44:54;;;;;;;6.55;4.10;;;19.50;99.90;;;;;;5045407;28;20037;-73
2022/08/30 05:47:20;;;;;;;8.93;5.18;;;19.30;99.90;;;;;;5043219;28;20131;-73
2022/08/30 05:49:47;;;;;;;6.38;4.47;;;19.10;99.90;;;;;;5063012;28;20028;-73
2022/08/30 05:52:14;;;;;;;6.38;3.50;;;19.30;99.90;;;;;;5056058;28;20032;-72
2022/08/30 05:54:40;;;;;;;9.00;3.70;;;19.40;99.90;;;;;;5051096;28;20016;-72
2022/08/30 05:57:07;;;;;;;5.57;3.67;;;19.40;99.90;;;;;;5051034;28;20052;-73
2022/08/30 05:59:33;;;;;;;5.50;3.78;;;19.60;99.90;;;;;;5059916;28;20348;-72
2022/08/30 06:01:58;;;;;;;10.13;4.53;;;19.70;99.90;;;;;;5062129;28;20033;-73
2022/08/30 06:04:25;;;;;;;6.72;4.20;;;19.70;99.90;;;;;;5056002;28;20029;-73
2022/08/30 06:06:50;;;;;;;6.63;4.82;;;19.50;99.90;;;;;;5058583;28;20033;-73
2022/08/30 06:09:16;;;;;;;7.07;4.40;;;19.60;99.90;;;;;;5062544;28;20089;-74
2022/08/30 06:11:43;;;;;;;6.90;5.32;;;19.60;99.90;;;;;;5066973;28;20051;-73
2022/08/30 06:14:10;;;;;;;5.00;3.30;;;19.60;99.90;;;;;;5058254;28;20041;-73
2022/08/30 06:16:37;;;;;;;5.60;3.70;;;19.60;99.90;;;;;;5038615;28;20044;-73
2022/08/30 06:19:05;;;;;;;5.47;3.22;;;19.40;99.90;;;;;;5057532;28;20043;-73
2022/08/30 06:21:33;;;;;;;6.43;3.20;;;19.70;99.90;;;;;;5048768;28;20033;-72
2022/08/30 06:23:59;;;;;;;5.13;3.20;;;19.80;99.90;;;;;;5048718;28;20119;-73
2022/08/30 06:26:26;;;;;;;6.70;4.13;;;19.80;99.90;;;;;;5053261;28;20059;-73
2022/08/30 06:28:53;;;;;;;8.25;4.28;;;19.90;99.90;;;;;;5048665;28;20033;-72
2022/08/30 06:31:19;;;;;;;6.93;4.03;;;20.00;99.90;;;;;;5053361;28;20028;-72
2022/08/30 06:33:45;;;;;;;5.18;3.38;;;20.00;99.90;;;;;;5057451;28;20033;-73
2022/08/30 06:36:18;;;;;;;5.40;3.80;;;20.00;99.90;;;;;;5048817;28;20644;-73
2022/08/30 06:38:44;;;;;;;6.38;4.13;;;19.80;99.90;;;;;;5054139;28;20033;-72
2022/08/30 06:41:18;;;;;;;6.20;3.85;;;20.00;99.90;;;;;;5062117;28;20078;-72
2022/08/30 06:43:43;;;;;;;5.90;3.63;;;20.20;99.90;;;;;;5052324;28;20048;-73
2022/08/30 06:46:13;;;;;;;5.07;3.50;;;20.80;99.90;;;;;;5047561;28;20059;-72
2022/08/30 06:48:38;;;;;;;6.30;3.70;;;21.40;99.90;;;;;;5052296;28;20060;-72
2022/08/30 06:51:05;;;;;;;7.28;3.25;;;21.90;99.90;;;;;;5053812;28;20060;-73
2022/08/30 06:53:32;;;;;;;5.75;3.33;;;23.80;99.90;;;;;;5047965;28;20094;-72
2022/08/30 06:56:06;;;;;;;4.38;2.92;;;25.70;99.90;;;;;;5062943;28;20101;-73
2022/08/30 06:58:33;;;;;;;5.03;3.10;;;26.70;99.90;;;;;;5048873;28;20074;-73
2022/08/30 07:00:59;;;;;;;6.22;2.78;;;26.40;99.90;;;;;;5057323;28;20067;-73
2022/08/30 07:03:27;;;;;;;6.28;2.70;;;25.80;99.90;;;;;;5049579;28;20090;-73
2022/08/30 07:05:55;;;;;;;5.15;2.50;;;26.10;99.90;;;;;;5052075;28;20036;-73
2022/08/30 07:08:22;;;;;;;6.22;2.83;;;26.50;99.90;;;;;;5049879;28;20036;-74
2022/08/30 07:10:48;;;;;;;4.63;3.30;;;27.00;99.90;;;;;;5061100;28;20036;-74
2022/08/30 07:13:15;;;;;;;4.85;3.17;;;27.40;99.70;;;;;;5062751;28;20040;-74
2022/08/30 07:15:43;;;;;;;5.85;3.28;;;28.20;99.40;;;;;;5053096;28;20028;-76
2022/08/30 07:20:53;;;;;;;5.78;2.90;;;28.70;98.60;;;;;;5049382;28;20134;-73
2022/08/30 07:23:19;;;;;;;8.85;2.60;;;28.60;97.80;;;;;;5053064;28;20036;-77
2022/08/30 07:25:45;;;;;;;7.10;2.97;;;28.70;98.10;;;;;;5058665;28;20044;-76
2022/08/30 07:28:11;;;;;;;5.97;3.05;;;29.10;97.60;;;;;;5059437;28;20140;-75
2022/08/30 07:30:37;;;;;;;5.75;3.00;;;27.70;98.10;;;;;;5048154;28;20061;-75
2022/08/30 07:33:03;;;;;;;4.72;3.08;;;25.10;99.90;;;;;;5066131;28;20023;-76
2022/08/30 07:35:30;;;;;;;8.80;4.05;;;23.70;99.90;;;;;;5051957;28;20035;-76
2022/08/30 07:37:57;;;;;;;5.55;4.00;;;23.00;99.90;;;;;;5051732;28;20039;-76
2022/08/30 07:40:23;;;;;;;5.70;4.03;;;22.70;99.90;;;;;;5049068;28;20040;-76
2022/08/30 07:42:48;;;;;;;7.20;4.38;;;22.50;99.90;;;;;;5051680;28;20560;-76
2022/08/30 07:45:14;;;;;;;5.53;4.00;;;22.30;99.90;;;;;;5047197;28;20029;-76
2022/08/30 07:47:40;;;;;;;5.68;4.30;;;22.30;99.90;;;;;;5047375;28;20032;-75
2022/08/30 07:50:06;;;;;;;6.25;4.40;;;22.30;99.90;;;;;;5047295;28;20033;-74
2022/08/30 07:52:33;;;;;;;8.73;4.03;;;22.10;99.90;;;;;;5047639;28;20047;-75
2022/08/30 07:55:00;;;;;;;5.72;4.40;;;22.10;99.90;;;;;;5053533;28;20382;-76
2022/08/30 07:57:26;;;;;;;6.28;4.28;;;22.00;99.90;;;;;;5067124;28;20399;-73
2022/08/30 07:59:52;;;;;;;6.05;4.70;;;21.90;99.90;;;;;;5066994;28;20090;-74
2022/08/30 08:02:18;;;;;;;7.10;5.22;;;21.90;99.90;;;;;;5066883;28;20024;-74
2022/08/30 08:04:47;;;;;;;5.40;3.83;;;22.10;99.90;;;;;;5067659;28;20559;-76
2022/08/30 08:07:13;;;;;;;6.00;4.15;;;22.00;99.90;;;;;;5049430;28;20381;-75
2022/08/30 08:09:38;;;;;;;4.93;3.60;;;22.00;99.90;;;;;;5054490;28;20035;-74
2022/08/30 08:12:06;;;;;;;6.03;3.90;;;21.90;99.90;;;;;;5056430;28;20112;-75
2022/08/30 08:14:33;;;;;;;5.22;3.80;;;22.10;99.90;;;;;;5067599;28;20506;-75
2022/08/30 08:16:59;;;;;;;5.93;3.55;;;22.20;99.90;;;;;;5067323;28;20072;-75
2022/08/30 08:19:25;;;;;;;4.65;3.40;;;22.00;99.90;;;;;;5067453;28;20044;-74
2022/08/30 08:21:55;;;;;;;7.43;4.53;;;21.90;99.90;;;;;;5065318;28;20613;-77
2022/08/30 08:24:22;;;;;;;6.22;4.28;;;22.00;99.90;;;;;;5065506;28;20028;-74
2022/08/30 08:26:48;;;;;;;5.82;3.58;;;22.10;99.90;;;;;;5069273;28;20040;-74
2022/08/30 08:29:13;;;;;;;11.32;5.10;;;22.10;99.90;;;;;;5070030;28;20352;-74
2022/08/30 08:31:40;;;;;;;6.10;4.35;;;22.20;99.90;;;;;;5054358;28;20032;-75
2022/08/30 08:34:06;;;;;;;8.25;5.40;;;22.40;99.90;;;;;;5066744;28;20044;-76
2022/08/30 08:36:33;;;;;;;6.18;4.47;;;22.60;99.90;;;;;;5069170;28;20032;-75
2022/08/30 08:38:59;;;;;;;6.47;4.30;;;22.70;99.90;;;;;;5069297;28;20036;-75
2022/08/30 08:41:53;;;;;;;6.45;4.47;;;22.70;99.90;;;;;;5070375;28;20033;-74
2022/08/30 08:44:22;;;;;;;7.05;4.63;;;22.70;99.90;;;;;;5069978;28;20494;-76
2022/08/30 08:47:16;;;;;;;6.85;4.35;;;22.80;99.90;;;;;;5069119;28;21935;-75
2022/08/30 08:49:45;;;;;;;6.68;3.50;;;25.30;99.90;;;;;;5032348;28;20053;-75
2022/08/30 08:55:30;;;;;;;6.00;3.38;;;28.10;99.90;;;;;;5069980;28;20043;-75
2022/08/30 08:57:56;;;;;;;5.50;4.03;;;28.70;98.80;;;;;;5069799;28;20071;-75
2022/08/30 09:00:22;;;;;;;6.28;3.78;;;29.60;98.60;;;;;;5069320;28;20044;-76
2022/08/30 09:03:00;;;;;;;5.88;3.13;;;29.30;99.00;;;;;;5068951;28;20120;-75
2022/08/30 09:05:36;;;;;;;5.03;3.53;;;29.30;97.60;;;;;;5069293;28;20047;-75
2022/08/30 09:08:09;;;;;;;6.78;3.58;;;29.30;97.60;;;;;;5069828;28;20081;-75
2022/08/30 09:10:35;;;;;;;4.68;3.33;;;30.00;97.60;;;;;;5069336;28;20502;-76
2022/08/30 09:13:01;;;;;;;5.18;3.28;;;30.20;97.70;;;;;;5069764;28;20029;-75
2022/08/30 09:15:31;;;;;;;5.97;3.92;;;30.40;97.30;;;;;;5069241;28;20037;-76
2022/08/30 09:18:06;;;;;;;9.48;4.00;;;29.70;98.20;;;;;;5068490;28;20604;-75
2022/08/30 09:20:40;;;;;;;5.13;3.78;;;29.10;98.00;;;;;;5067468;28;20502;-75
2022/08/30 09:23:14;;;;;;;6.13;3.83;;;28.60;98.50;;;;;;5069528;28;20029;-75
2022/08/30 09:25:56;;;;;;;5.15;3.55;;;28.30;98.60;;;;;;5069331;28;20033;-75
2022/08/30 09:28:27;;;;;;;5.05;3.35;;;27.40;98.30;;;;;;5054083;28;20522;-75
2022/08/30 09:31:03;;;;;;;7.38;3.85;;;26.80;99.50;;;;;;5056128;28;20499;-75
2022/08/30 09:33:29;;;;;;;5.95;4.00;;;26.10;99.90;;;;;;5048894;28;20041;-75
2022/08/30 09:35:56;;;;;;;6.50;4.03;;;25.50;99.90;;;;;;5048959;28;20064;-75
2022/08/30 09:38:29;;;;;;;6.30;3.70;;;25.40;99.90;;;;;;5068145;28;20494;-76
2022/08/30 09:41:01;;;;;;;5.50;3.60;;;24.90;99.90;;;;;;5069293;28;20091;-75
2022/08/30 09:43:30;;;;;;;6.60;3.80;;;24.50;99.90;;;;;;5068656;28;20081;-75
2022/08/30 09:45:59;;;;;;;4.78;3.15;;;24.60;99.90;;;;;;5067200;28;20032;-75
2022/08/30 09:48:43;;;;;;;6.13;3.60;;;24.70;99.90;;;;;;5056777;28;20029;-75
2022/08/30 09:51:09;;;;;;;7.88;4.90;;;25.00;99.90;;;;;;5048891;28;20516;-76
2022/08/30 09:53:49;;;;;;;9.40;4.90;;;25.10;99.90;;;;;;5053339;28;20043;-75
2022/08/30 09:56:38;;;;;;;6.75;3.78;;;25.20;99.90;;;;;;5068864;28;20592;-75
2022/08/30 09:59:33;;;;;;;10.18;4.68;;;25.40;99.90;;;;;;5051059;28;20055;-75
2022/08/30 10:02:35;;;;;;;5.72;3.30;;;25.30;99.90;;;;;;5063706;28;20036;-76
2022/08/30 10:05:04;;;;;;;6.15;3.47;;;25.30;99.90;;;;;;5067938;28;20040;-75
2022/08/30 10:08:05;;;;;;;4.85;3.33;;;25.30;99.90;;;;;;5068065;28;20043;-76
2022/08/30 10:10:40;;;;;;;8.32;4.32;;;25.60;99.90;;;;;;5063319;28;20075;-76
2022/08/30 10:13:09;;;;;;;5.88;3.75;;;25.90;99.90;;;;;;5054562;28;20501;-76
2022/08/30 10:15:59;;;;;;;7.68;3.45;;;26.10;99.90;;;;;;5041224;28;21559;-77
2022/08/30 10:18:27;;;;;;;5.13;3.50;;;26.10;99.90;;;;;;5006020;28;20083;-75
2022/08/30 10:21:18;;;;;;;5.53;3.80;;;25.50;99.90;;;;;;5072121;28;20450;-75
2022/08/30 10:23:49;;;;;;;8.93;4.15;;;25.70;99.90;;;;;;5048464;28;20348;-76
2022/08/30 10:26:35;;;;;;;7.32;3.03;;;25.90;99.90;;;;;;5047780;28;20459;-76
2022/08/30 10:29:27;;;;;;;5.70;3.00;;;25.90;98.90;;;;;;5064530;28;20032;-75
2022/08/30 10:31:59;;;;;;;5.13;3.28;;;25.70;98.80;;;;;;5067372;28;20032;-76
2022/08/30 10:34:31;;;;;;;9.40;4.68;;;25.90;99.90;;;;;;5059550;28;20040;-75
2022/08/30 10:37:02;;;;;;;4.57;3.28;;;26.30;99.90;;;;;;5047419;28;20044;-76
2022/08/30 10:39:34;;;;;;;4.97;3.10;;;26.40;99.90;;;;;;5053494;28;20567;-76
2022/08/30 10:42:15;;;;;;;5.25;3.05;;;26.60;99.90;;;;;;5065204;28;20637;-76
2022/08/30 10:44:45;;;;;;;4.80;2.97;;;26.80;99.90;;;;;;5066538;28;20032;-76
2022/08/30 10:47:29;;;;;;;12.90;4.70;;;26.80;99.20;;;;;;5052623;28;20086;-76
2022/08/30 10:50:14;;;;;;;6.95;2.97;;;26.80;99.90;;;;;;5047627;28;20029;-76
2022/08/30 10:52:56;;;;;;;8.80;4.35;;;26.80;98.90;;;;;;5029983;28;20032;-76
2022/08/30 10:55:27;;;;;;;6.20;3.75;;;26.80;97.90;;;;;;5047126;28;20479;-76
2022/08/30 10:58:05;;;;;;;5.15;2.55;;;27.10;98.80;;;;;;5059649;28;20064;-76
2022/08/30 11:00:52;;;;;;;4.25;2.20;;;27.30;98.90;;;;;;5066898;28;20414;-76
2022/08/30 11:03:36;;;;;;;4.38;2.10;;;27.40;97.70;;;;;;5067345;28;20036;-76
2022/08/30 11:06:12;;;;;;;4.13;2.45;;;27.20;98.30;;;;;;5049620;28;20036;-76
2022/08/30 11:08:47;;;;;;;4.10;2.53;;;27.20;98.50;;;;;;5066982;28;20025;-75
2022/08/30 11:11:31;;;;;;;5.80;2.50;;;27.30;98.90;;;;;;5056748;28;20029;-75
2022/08/30 11:14:02;;;;;;;4.65;2.65;;;27.10;98.50;;;;;;5059753;28;20028;-75
2022/08/30 11:16:44;;;;;;;5.72;2.80;;;26.80;97.50;;;;;;5065661;28;20390;-75
2022/08/30 11:19:36;;;;;;;4.93;2.50;;;26.60;99.90;;;;;;5066498;28;20075;-75
2022/08/30 11:22:40;;;;;;;4.82;2.28;;;26.60;99.90;;;;;;5064511;28;20108;-75
2022/08/30 11:25:35;;;;;;;5.47;2.60;;;26.50;99.20;;;;;;5065722;28;20129;-75
2022/08/30 11:28:01;;;;;;;22.40;7.00;;;26.70;98.70;;;;;;5067578;28;20032;-75
2022/08/30 11:30:27;;;;;;;5.72;2.80;;;26.70;99.90;;;;;;5067153;28;20403;-75
2022/08/30 11:33:24;;;;;;;3.78;2.30;;;26.60;98.60;;;;;;5054733;28;20029;-75
2022/08/30 11:35:52;;;;;;;4.68;3.05;;;26.90;99.70;;;;;;5036752;28;21009;-75
2022/08/30 11:38:27;;;;;;;8.00;3.30;;;27.30;99.90;;;;;;5058762;28;20029;-75
2022/08/30 11:40:57;;;;;;;4.85;3.28;;;27.20;98.50;;;;;;5058325;28;20031;-75
2022/08/30 11:43:35;;;;;;;6.25;3.42;;;27.20;99.10;;;;;;5055770;28;20051;-75
2022/08/30 11:46:23;;;;;;;5.20;3.25;;;27.40;98.60;;;;;;5056167;28;20505;-74
2022/08/30 11:48:53;;;;;;;5.22;3.28;;;27.30;97.90;;;;;;5048044;28;20032;-75
2022/08/30 11:51:28;;;;;;;4.80;3.15;;;27.60;99.90;;;;;;5049912;28;20104;-75
2022/08/30 11:54:17;;;;;;;5.82;3.38;;;27.90;98.60;;;;;;5064703;28;20028;-75
2022/08/30 11:57:00;;;;;;;4.40;3.20;;;28.30;98.30;;;;;;5052812;28;20032;-75
2022/08/30 12:00:00;;;;;;;5.85;3.67;;;28.20;98.00;;;;;;5057172;28;20518;-75
2022/08/30 12:02:38;;;;;;;4.97;3.38;;;28.40;98.90;;;;;;5041416;28;20128;-74
2022/08/30 12:05:04;;;;;;;5.22;3.00;;;28.60;98.30;;;;;;5066747;28;20039;-74
2022/08/30 12:07:59;;;;;;;7.28;3.22;;;28.60;97.80;;;;;;5058114;28;20033;-74
2022/08/30 12:10:44;;;;;;;7.53;3.20;;;28.50;97.40;;;;;;5056392;28;20036;-74
2022/08/30 12:13:32;;;;;;;6.70;3.30;;;28.70;97.30;;;;;;5050539;28;20029;-75
2022/08/30 12:16:07;;;;;;;5.97;3.53;;;28.60;96.60;;;;;;5058241;28;20029;-75
2022/08/30 12:18:36;;;;;;;4.80;3.30;;;28.60;96.90;;;;;;5069795;28;20158;-75
2022/08/30 12:21:18;;;;;;;4.82;3.20;;;28.70;96.10;;;;;;5059447;28;20037;-75
2022/08/30 12:23:49;;;;;;;5.68;3.42;;;28.80;96.50;;;;;;5043339;28;20064;-74
2022/08/30 12:26:27;;;;;;;6.68;2.80;;;29.10;97.10;;;;;;5068752;28;20085;-74
2022/08/30 12:29:05;;;;;;;4.50;3.30;;;29.00;96.40;;;;;;5061320;28;20021;-75
2022/08/30 12:31:31;;;;;;;7.57;4.00;;;28.60;96.20;;;;;;5050112;28;20025;-75
2022/08/30 12:34:00;;;;;;;5.95;3.25;;;28.40;97.00;;;;;;5061057;28;20131;-75
2022/08/30 12:37:01;;;;;;;5.43;3.30;;;28.50;96.50;;;;;;5069948;28;20046;-75
2022/08/30 12:39:30;;;;;;;4.22;2.95;;;28.80;97.20;;;;;;5069726;28;20064;-75
2022/08/30 12:42:29;;;;;;;4.90;3.10;;;28.80;96.90;;;;;;5070000;28;20102;-75
2022/08/30 12:44:59;;;;;;;5.68;2.92;;;28.80;96.90;;;;;;5067885;28;20040;-75
2022/08/30 12:47:31;;;;;;;5.15;3.47;;;28.80;96.60;;;;;;5049983;28;20021;-75
2022/08/30 12:49:58;;;;;;;8.23;3.20;;;28.60;95.90;;;;;;5049642;28;20659;-75
2022/08/30 12:52:38;;;;;;;4.45;2.55;;;28.50;96.70;;;;;;5065047;28;20600;-75
2022/08/30 12:55:14;;;;;;;4.90;3.15;;;28.40;96.20;;;;;;5068830;28;20024;-74
2022/08/30 12:57:54;;;;;;;4.50;3.00;;;28.30;96.90;;;;;;5064911;28;20060;-74
2022/08/30 13:00:30;;;;;;;9.10;3.65;;;28.20;96.80;;;;;;5064180;28;20032;-74
2022/08/30 13:02:58;;;;;;;5.57;3.58;;;28.10;97.30;;;;;;5049774;28;20033;-75
2022/08/30 13:05:33;;;;;;;5.75;3.22;;;28.10;97.70;;;;;;5060148;28;20085;-74
2022/08/30 13:08:21;;;;;;;6.43;3.67;;;28.20;96.80;;;;;;5067726;28;20028;-74
2022/08/30 13:10:57;;;;;;;9.20;3.55;;;28.10;97.00;;;;;;5056378;28;20071;-74